Terminal Aerodrome Forecast
Issued by NWS

Home | Current Version | Previous Version | Text Only | Print | Product List | Glossary On
Versions: 1 2 3 4 5 6 7 8 9 10 11 12 13 14 15 16 17 18 19 20 21 22 23 24 25
118
FTUS43 KLOT 080315 AAA
TAFORD
TAF AMD
KORD 080315Z 0803/0906 25008KT P6SM BKN200
     FM080900 29009KT P6SM -SHSN OVC025
      TEMPO 0810/0814 2SM -SHSN OVC015
     FM081500 29011KT P6SM -SHSN OVC020
     FM090000 30010KT 3SM -SN OVC018=

USA.gov is the U.S. government's official web portal to all federal, state and local government web resources and services.